Time;durP1;ratioP1;P1;durP2;ratioP2;P2;SDS_P1;SDS_P2;PMS_P1;PMS_P2;Temp;Humidity;BMP_temperature;BMP_pressure;BME280_temperature;BME280_humidity;BME280_pressure;Samples;Min_cycle;Max_cycle;Signal;HPM_P1;HPM_P2
2024/02/12 00:00:05;;;;;;;;;3.00;2.50;;;;;9.05;76.60;99588.53;5040921;28;45441;-68
2024/02/12 00:02:30;;;;;;;;;3.75;3.00;;;;;9.04;76.77;99593.81;5037507;28;46935;-67
2024/02/12 00:04:56;;;;;;;;;6.75;3.50;;;;;9.02;76.98;99596.47;5037881;28;73679;-68
2024/02/12 00:07:21;;;;;;;;;3.50;2.00;;;;;9.02;77.11;99598.22;5054886;28;45398;-68
2024/02/12 00:09:47;;;;;;;;;3.75;2.25;;;;;9.00;77.08;99593.06;5038773;28;53512;-68
2024/02/12 00:12:13;;;;;;;;;3.50;2.00;;;;;9.00;76.97;99600.91;5042665;28;46098;-68
2024/02/12 00:14:38;;;;;;;;;2.00;1.00;;;;;9.00;76.69;99595.69;5039349;28;45358;-69
2024/02/12 00:17:04;;;;;;;;;5.00;2.00;;;;;8.98;76.92;99602.72;5040415;28;45543;-68
2024/02/12 00:19:37;;;;;;;;;1.75;1.75;;;;;8.95;77.08;99600.22;5076215;27;45214;-69
2024/02/12 00:22:04;;;;;;;;;3.75;2.00;;;;;8.97;76.89;99597.56;5039860;28;46492;-68
2024/02/12 00:24:29;;;;;;;;;7.75;3.00;;;;;8.96;76.99;99601.06;5021517;28;47078;-69
2024/02/12 00:27:00;;;;;;;;;4.25;2.25;;;;;8.96;76.74;99604.53;5043666;28;45422;-69
2024/02/12 00:29:26;;;;;;;;;4.25;2.75;;;;;8.96;77.13;99607.16;5037261;28;45446;-68
2024/02/12 00:31:52;;;;;;;;;4.00;2.25;;;;;8.94;77.01;99606.34;5039696;28;45452;-67
2024/02/12 00:34:20;;;;;;;;;3.00;3.00;;;;;8.93;77.10;99605.50;5041663;28;45467;-67
2024/02/12 00:36:46;;;;;;;;;12.00;3.75;;;;;8.91;77.14;99607.31;5074251;27;45332;-67
2024/02/12 00:39:12;;;;;;;;;7.25;2.00;;;;;8.90;77.03;99602.16;5038423;28;45212;-70
2024/02/12 00:41:38;;;;;;;;;6.00;3.00;;;;;8.90;77.39;99612.59;5031703;28;46517;-67
2024/02/12 00:44:04;;;;;;;;;4.00;3.00;;;;;8.89;77.31;99614.34;5041714;28;45575;-68
2024/02/12 00:46:29;;;;;;;;;5.00;2.00;;;;;8.90;77.20;99618.66;5034213;28;45740;-68
2024/02/12 00:48:56;;;;;;;;;2.25;1.75;;;;;8.90;77.42;99620.41;5031930;28;73557;-68
2024/02/12 00:51:22;;;;;;;;;5.00;1.75;;;;;8.87;77.21;99621.41;5030291;28;46557;-69
2024/02/12 00:53:47;;;;;;;;;1.50;1.00;;;;;8.87;77.44;99618.78;5056952;28;45396;-68
2024/02/12 00:56:15;;;;;;;;;3.00;1.00;;;;;8.85;77.26;99620.63;5041999;28;45443;-69
2024/02/12 00:58:42;;;;;;;;;2.00;1.00;;;;;8.85;77.19;99624.97;5058547;28;45276;-68
2024/02/12 01:01:10;;;;;;;;;0.75;0.00;;;;;8.83;77.43;99627.63;5074293;27;46188;-68
2024/02/12 01:03:35;;;;;;;;;1.00;1.00;;;;;8.81;77.66;99626.84;5056153;28;46070;-68
2024/02/12 01:06:01;;;;;;;;;2.00;1.00;;;;;8.80;77.49;99632.09;5039315;28;45310;-68
2024/02/12 01:08:27;;;;;;;;;7.75;2.00;;;;;8.77;77.52;99629.63;5044301;28;46337;-68
2024/02/12 01:10:52;;;;;;;;;2.00;0.25;;;;;8.76;77.55;99628.75;5047440;28;46188;-68
2024/02/12 01:13:18;;;;;;;;;2.00;1.25;;;;;8.76;77.63;99635.75;5056629;28;70025;-69
2024/02/12 01:15:47;;;;;;;;;3.00;2.00;;;;;8.74;77.78;99634.03;5038993;28;67913;-69
2024/02/12 01:18:13;;;;;;;;;3.50;2.25;;;;;8.74;77.65;99638.41;5043529;28;45500;-69
2024/02/12 01:20:39;;;;;;;;;4.50;1.75;;;;;8.70;77.73;99635.06;5054217;28;46366;-68
2024/02/12 01:23:06;;;;;;;;;3.25;2.00;;;;;8.70;77.80;99637.66;5044908;28;45337;-66
2024/02/12 01:25:31;;;;;;;;;2.50;1.75;;;;;8.69;77.89;99646.41;5045041;28;45410;-67
2024/02/12 01:28:00;;;;;;;;;4.00;1.25;;;;;8.70;77.85;99649.88;5077685;27;45482;-67
2024/02/12 01:30:26;;;;;;;;;5.00;2.00;;;;;8.69;78.03;99654.25;5047169;28;46134;-68
2024/02/12 01:32:52;;;;;;;;;1.75;1.75;;;;;8.68;78.00;99659.50;5043726;28;45276;-68
2024/02/12 01:35:17;;;;;;;;;2.50;1.00;;;;;8.66;77.88;99664.78;5040563;28;45571;-68
2024/02/12 01:37:42;;;;;;;;;3.00;0.25;;;;;8.66;77.89;99675.22;5043427;28;48464;-68
2024/02/12 01:40:09;;;;;;;;;3.00;1.75;;;;;8.65;78.18;99672.66;5055417;28;74334;-68
2024/02/12 01:42:34;;;;;;;;;1.00;0.00;;;;;8.62;78.06;99673.59;5054969;28;45903;-68
2024/02/12 01:45:11;;;;;;;;;1.00;1.00;;;;;8.58;77.82;99663.34;5041007;28;46557;-69
2024/02/12 01:47:42;;;;;;;;;3.25;1.00;;;;;8.60;78.01;99671.97;5071402;27;45408;-68
2024/02/12 01:50:15;;;;;;;;;1.75;1.00;;;;;8.57;78.19;99665.13;5077984;27;46231;-69
2024/02/12 01:52:48;;;;;;;;;5.00;1.25;;;;;8.59;78.34;99671.13;5042591;28;45496;-69
2024/02/12 01:55:14;;;;;;;;;6.50;1.00;;;;;8.60;78.25;99678.03;5032608;28;45302;-69
2024/02/12 01:57:39;;;;;;;;;3.00;2.00;;;;;8.60;78.12;99672.81;5038371;28;45375;-69
2024/02/12 02:00:09;;;;;;;;;4.50;1.00;;;;;8.62;78.30;99680.59;5043733;28;46099;-69
2024/02/12 02:02:36;;;;;;;;;2.75;1.00;;;;;8.63;78.46;99684.91;5073926;27;45975;-69
2024/02/12 02:05:02;;;;;;;;;1.50;1.50;;;;;8.62;78.49;99683.19;5045923;28;45379;-67
2024/02/12 02:07:27;;;;;;;;;2.00;2.00;;;;;8.62;78.46;99693.63;5046972;28;45337;-69
2024/02/12 02:09:53;;;;;;;;;4.50;1.75;;;;;8.62;78.18;99683.19;5071845;28;47001;-68
2024/02/12 02:12:19;;;;;;;;;3.25;2.00;;;;;8.62;78.21;99689.25;5044632;28;72977;-67
2024/02/12 02:14:44;;;;;;;;;3.50;2.00;;;;;8.63;78.43;99687.50;5039668;28;67808;-68
2024/02/12 02:17:10;;;;;;;;;3.00;0.25;;;;;8.65;78.03;99693.53;5041986;28;45256;-68
2024/02/12 02:19:35;;;;;;;;;2.75;2.00;;;;;8.67;78.50;99689.09;5045817;28;46058;-67
2024/02/12 02:22:02;;;;;;;;;2.00;1.00;;;;;8.70;78.12;99689.84;5038878;28;48287;-68
2024/02/12 02:24:28;;;;;;;;;2.50;0.00;;;;;8.72;77.81;99682.81;5045342;28;45374;-68
2024/02/12 02:26:54;;;;;;;;;2.25;1.75;;;;;8.75;78.04;99689.69;5040663;28;45634;-68
2024/02/12 02:29:19;;;;;;;;;4.25;1.00;;;;;8.78;78.22;99680.88;5070749;28;46185;-67
2024/02/12 02:31:46;;;;;;;;;2.50;1.00;;;;;8.79;77.73;99687.81;5039973;28;45406;-67
2024/02/12 02:34:11;;;;;;;;;1.25;1.00;;;;;8.82;77.72;99685.94;5076779;27;45367;-68
2024/02/12 02:36:37;;;;;;;;;2.75;1.75;;;;;8.83;77.59;99678.94;5059726;28;75312;-68
2024/02/12 02:39:04;;;;;;;;;4.75;2.00;;;;;8.81;77.52;99680.78;5047131;28;72336;-68
2024/02/12 02:41:30;;;;;;;;;4.00;1.00;;;;;8.82;77.59;99678.13;5038564;28;45816;-69
2024/02/12 02:43:56;;;;;;;;;2.50;0.75;;;;;8.79;77.46;99673.00;5039253;28;45456;-69
2024/02/12 02:46:27;;;;;;;;;2.25;1.00;;;;;8.78;77.36;99678.28;5042237;28;45628;-70
2024/02/12 02:48:55;;;;;;;;;4.00;3.00;;;;;8.74;77.65;99670.53;5041992;28;45617;-69
2024/02/12 02:51:27;;;;;;;;;3.50;1.50;;;;;8.73;77.78;99673.25;5045226;28;46238;-68
2024/02/12 02:53:52;;;;;;;;;5.75;2.00;;;;;8.73;77.57;99679.31;5048350;28;45291;-68
2024/02/12 02:56:18;;;;;;;;;2.25;2.25;;;;;8.72;77.74;99674.13;5041584;28;58079;-68
2024/02/12 02:58:43;;;;;;;;;2.25;2.00;;;;;8.76;77.39;99675.72;5038143;28;67166;-68
2024/02/12 03:01:10;;;;;;;;;3.25;2.00;;;;;8.78;77.55;99676.50;5042346;28;73121;-68
2024/02/12 03:03:35;;;;;;;;;3.25;1.00;;;;;8.80;77.23;99679.94;5054710;28;45318;-68
2024/02/12 03:06:02;;;;;;;;;8.25;2.00;;;;;8.82;77.28;99677.25;5044667;28;45271;-67
2024/02/12 03:08:30;;;;;;;;;3.50;1.25;;;;;8.82;77.40;99675.50;5046960;28;46675;-67
2024/02/12 03:10:55;;;;;;;;;5.25;1.00;;;;;8.86;77.63;99679.69;5053406;28;45826;-68
2024/02/12 03:13:20;;;;;;;;;5.00;1.00;;;;;8.89;77.28;99676.13;5044845;28;45491;-68
2024/02/12 03:15:46;;;;;;;;;4.00;0.25;;;;;8.92;77.16;99678.59;5047390;28;45252;-68
2024/02/12 03:18:11;;;;;;;;;7.75;1.75;;;;;8.95;77.38;99680.28;5038999;28;46258;-67
2024/02/12 03:20:37;;;;;;;;;3.00;3.00;;;;;8.98;77.34;99678.41;5038299;28;74002;-67
2024/02/12 03:23:02;;;;;;;;;2.00;1.00;;;;;9.01;77.09;99673.06;5045618;28;45503;-68
2024/02/12 03:25:28;;;;;;;;;1.00;1.00;;;;;9.04;77.24;99677.31;5040270;28;45579;-68
2024/02/12 03:27:53;;;;;;;;;4.50;2.50;;;;;9.07;76.68;99666.75;5038091;28;75096;-67
2024/02/12 03:30:18;;;;;;;;;5.75;2.00;;;;;9.07;76.68;99672.81;5053632;28;45396;-68
2024/02/12 03:32:44;;;;;;;;;3.00;1.00;;;;;9.11;76.80;99684.00;5052656;28;45387;-66
2024/02/12 03:35:09;;;;;;;;;0.50;0.50;;;;;9.12;76.80;99678.72;5027295;28;45676;-68
2024/02/12 03:37:35;;;;;;;;;1.50;1.00;;;;;9.13;76.91;99679.56;5037306;28;46779;-67
2024/02/12 03:40:00;;;;;;;;;4.00;1.50;;;;;9.15;76.63;99679.50;5071857;27;45650;-69
2024/02/12 03:42:27;;;;;;;;;4.00;1.00;;;;;9.16;76.21;99676.00;5038751;28;45293;-68
2024/02/12 03:44:53;;;;;;;;;2.00;2.00;;;;;9.16;76.19;99684.69;5038080;28;45212;-68
2024/02/12 03:47:19;;;;;;;;;1.00;1.00;;;;;9.17;76.21;99683.78;5034931;28;47815;-68
2024/02/12 04:00:42;;;;;;;;;3.50;0.00;;;;;9.22;76.12;99691.41;5043499;28;45320;-68
2024/02/12 04:03:08;;;;;;;;;4.50;1.50;;;;;9.23;75.93;99693.13;5044492;28;45425;-68
2024/02/12 04:05:35;;;;;;;;;4.50;1.75;;;;;9.24;76.26;99697.41;5040718;28;45482;-67
2024/02/12 04:08:00;;;;;;;;;1.25;0.25;;;;;9.23;76.05;99695.75;5056209;28;45904;-67
2024/02/12 04:10:25;;;;;;;;;1.75;1.50;;;;;9.22;75.54;99692.25;5044130;28;45415;-68
2024/02/12 04:12:51;;;;;;;;;1.25;0.25;;;;;9.23;76.29;99699.19;5066154;28;45471;-69
2024/02/12 04:15:16;;;;;;;;;3.50;1.00;;;;;9.25;75.80;99694.75;5040870;28;45464;-69
2024/02/12 04:17:42;;;;;;;;;0.00;0.00;;;;;9.26;76.12;99700.81;5075055;27;45372;-68
2024/02/12 04:20:10;;;;;;;;;2.50;1.00;;;;;9.26;75.81;99693.88;5043154;28;45647;-68
2024/02/12 04:22:38;;;;;;;;;3.00;1.00;;;;;9.27;75.92;99692.09;5042154;28;45309;-68
2024/02/12 04:25:05;;;;;;;;;2.00;0.50;;;;;9.30;75.87;99697.22;5042749;28;45616;-68
2024/02/12 04:27:33;;;;;;;;;1.50;0.50;;;;;9.30;75.89;99705.88;5043365;28;53622;-68
2024/02/12 04:29:58;;;;;;;;;4.00;1.00;;;;;9.32;75.56;99700.59;5021460;28;45600;-68
2024/02/12 04:32:24;;;;;;;;;2.50;1.00;;;;;9.32;75.46;99700.59;5045813;28;46441;-68
2024/02/12 04:34:49;;;;;;;;;0.00;0.00;;;;;9.30;75.51;99700.66;5046427;28;45550;-68
2024/02/12 04:37:14;;;;;;;;;5.00;1.00;;;;;9.30;75.62;99702.44;5047293;28;74228;-69
2024/02/12 04:39:40;;;;;;;;;3.00;1.00;;;;;9.31;75.37;99706.72;5044049;28;74266;-68
2024/02/12 04:42:05;;;;;;;;;1.75;0.75;;;;;9.34;75.25;99700.53;5075832;27;45715;-69
2024/02/12 04:44:31;;;;;;;;;2.50;1.00;;;;;9.36;75.25;99709.16;5041906;28;45534;-68
2024/02/12 04:46:58;;;;;;;;;1.75;1.00;;;;;9.34;75.24;99711.84;5040684;28;75249;-68
2024/02/12 04:49:23;;;;;;;;;2.00;1.00;;;;;9.35;75.50;99707.44;5056299;28;45320;-68
2024/02/12 04:51:49;;;;;;;;;2.00;2.00;;;;;9.35;75.44;99710.06;5046305;28;69389;-69
2024/02/12 04:54:14;;;;;;;;;6.50;3.00;;;;;9.34;75.53;99709.22;5040375;28;45346;-69
2024/02/12 04:56:43;;;;;;;;;2.50;1.50;;;;;9.35;75.46;99713.56;5040919;28;48854;-69
2024/02/12 04:59:14;;;;;;;;;1.50;0.25;;;;;9.38;75.44;99716.00;5057115;28;45725;-69
2024/02/12 05:01:39;;;;;;;;;6.50;2.50;;;;;9.38;75.16;99716.00;5041628;28;45515;-67
2024/02/12 05:04:05;;;;;;;;;3.75;1.75;;;;;9.40;75.05;99714.22;5041186;28;45444;-69
2024/02/12 05:06:32;;;;;;;;;1.25;1.25;;;;;9.41;74.99;99715.91;5040325;28;45458;-68
2024/02/12 05:08:58;;;;;;;;;3.75;1.25;;;;;9.42;75.11;99715.00;5041328;28;45414;-68
2024/02/12 05:11:25;;;;;;;;;2.25;1.00;;;;;9.44;75.18;99717.56;5040389;28;45392;-68
2024/02/12 05:13:51;;;;;;;;;4.00;0.00;;;;;9.44;75.05;99720.19;5043286;28;45239;-68
2024/02/12 05:16:16;;;;;;;;;0.50;0.50;;;;;9.46;74.54;99713.97;5071628;28;45738;-68
2024/02/12 05:24:10;;;;;;;;;2.00;0.50;;;;;9.45;74.79;99722.69;5045925;28;45434;-68
2024/02/12 05:26:36;;;;;;;;;3.00;1.00;;;;;9.44;74.55;99722.78;5073656;27;46061;-67
2024/02/12 05:29:01;;;;;;;;;1.25;1.00;;;;;9.43;74.60;99724.53;5041843;28;45699;-67
2024/02/12 05:31:27;;;;;;;;;1.00;1.00;;;;;9.43;75.05;99723.69;5039378;28;68302;-68
2024/02/12 05:33:52;;;;;;;;;2.75;1.25;;;;;9.42;74.57;99729.81;5046062;28;45515;-68
2024/02/12 05:36:20;;;;;;;;;1.75;1.00;;;;;9.41;74.74;99722.91;5076196;27;66244;-67
2024/02/12 05:38:46;;;;;;;;;1.25;1.25;;;;;9.41;74.72;99721.13;5072582;27;45454;-68
2024/02/12 05:41:12;;;;;;;;;1.50;1.00;;;;;9.43;74.49;99724.53;5043398;28;45463;-69
2024/02/12 05:43:38;;;;;;;;;2.25;1.00;;;;;9.45;74.91;99721.88;5039840;28;45399;-69
2024/02/12 05:46:04;;;;;;;;;4.75;0.50;;;;;9.42;74.48;99724.59;5040447;28;46443;-69
2024/02/12 05:48:29;;;;;;;;;2.00;1.00;;;;;9.42;74.72;99725.47;5040868;28;45457;-68
2024/02/12 05:50:56;;;;;;;;;4.25;1.50;;;;;9.45;74.47;99735.75;5045582;28;61947;-69
2024/02/12 05:53:23;;;;;;;;;1.25;0.25;;;;;9.47;74.49;99730.47;5044091;28;45479;-68
2024/02/12 05:55:48;;;;;;;;;2.00;1.00;;;;;9.49;74.69;99732.16;5039697;28;47966;-68
2024/02/12 05:58:14;;;;;;;;;4.75;2.00;;;;;9.51;74.75;99729.47;5055897;28;48176;-69
2024/02/12 06:00:41;;;;;;;;;3.75;2.00;;;;;9.52;74.76;99731.16;5043261;28;45373;-68
2024/02/12 06:03:06;;;;;;;;;2.25;1.75;;;;;9.52;74.94;99735.53;5041447;28;45611;-67
2024/02/12 06:05:31;;;;;;;;;4.75;2.25;;;;;9.55;75.16;99735.44;5022577;28;47181;-68
2024/02/12 06:07:57;;;;;;;;;6.25;3.25;;;;;9.55;75.24;99733.66;5039625;28;45300;-68
2024/02/12 06:10:22;;;;;;;;;2.50;2.00;;;;;9.58;75.17;99736.16;5043574;28;69081;-68
2024/02/12 06:12:47;;;;;;;;;2.00;2.00;;;;;9.60;75.25;99736.09;5039700;28;57706;-68
2024/02/12 06:15:13;;;;;;;;;6.50;2.50;;;;;9.56;75.43;99731.88;5038641;28;75865;-68
2024/02/12 06:17:38;;;;;;;;;5.00;3.00;;;;;9.58;75.06;99736.16;5037867;28;67091;-68
2024/02/12 06:20:06;;;;;;;;;3.25;2.00;;;;;9.57;75.23;99742.28;5040548;28;45433;-68
2024/02/12 06:22:32;;;;;;;;;5.50;2.00;;;;;9.57;75.20;99738.81;5074729;27;45366;-68
2024/02/12 06:24:57;;;;;;;;;7.25;2.75;;;;;9.54;75.18;99734.56;5044654;28;46640;-68
2024/02/12 06:27:22;;;;;;;;;4.25;3.00;;;;;9.52;75.07;99743.38;5046759;28;64764;-68
2024/02/12 06:29:48;;;;;;;;;3.75;3.00;;;;;9.51;75.24;99745.16;5047218;28;69551;-69
2024/02/12 06:32:14;;;;;;;;;7.00;3.00;;;;;9.48;75.44;99748.72;5039476;28;65779;-68
2024/02/12 06:34:46;;;;;;;;;4.75;3.25;;;;;9.49;75.54;99745.19;5040958;28;45289;-68
2024/02/12 06:37:11;;;;;;;;;4.00;4.00;;;;;9.47;75.56;99749.63;5036180;28;45756;-68
2024/02/12 06:39:39;;;;;;;;;6.00;3.00;;;;;9.49;75.44;99757.38;5038853;28;65456;-68
2024/02/12 06:42:05;;;;;;;;;5.00;3.00;;;;;9.47;75.67;99753.97;5038604;28;45712;-68
2024/02/12 06:44:32;;;;;;;;;8.75;4.00;;;;;9.41;75.27;99749.84;5041225;28;48114;-68
2024/02/12 06:46:57;;;;;;;;;3.50;2.50;;;;;9.39;75.61;99758.66;5069825;28;45347;-67
2024/02/12 06:49:22;;;;;;;;;3.25;3.25;;;;;9.34;75.81;99748.38;5045648;28;45409;-69
2024/02/12 06:51:48;;;;;;;;;8.00;3.75;;;;;9.34;75.91;99758.84;5041930;28;49154;-72
2024/02/12 06:54:13;;;;;;;;;4.75;3.00;;;;;9.35;76.21;99764.91;5039337;28;61608;-72
2024/02/12 06:56:41;;;;;;;;;19.25;13.75;;;;;9.34;76.24;99763.22;5041190;28;72149;-68
2024/02/12 06:59:06;;;;;;;;;19.75;13.25;;;;;9.38;76.38;99776.06;5044855;28;45507;-67
2024/02/12 07:01:31;;;;;;;;;9.50;5.00;;;;;9.39;76.04;99776.94;5041841;28;72955;-68
2024/02/12 07:03:57;;;;;;;;;5.00;5.00;;;;;9.41;76.04;99775.97;5023055;28;63326;-63
2024/02/12 07:06:22;;;;;;;;;5.00;3.75;;;;;9.41;75.96;99783.81;5040661;28;45490;-62
2024/02/12 07:08:48;;;;;;;;;9.00;4.00;;;;;9.41;76.28;99786.41;5038767;28;45216;-63
2024/02/12 07:11:14;;;;;;;;;4.50;4.00;;;;;9.39;76.11;99787.41;5044682;28;45276;-63
2024/02/12 07:13:40;;;;;;;;;4.50;3.25;;;;;9.40;75.83;99794.31;5039063;28;46226;-74
2024/02/12 07:16:05;;;;;;;;;7.75;2.00;;;;;9.36;76.26;99795.34;5032997;28;62463;-73
2024/02/12 07:18:31;;;;;;;;;6.75;3.00;;;;;9.34;76.57;99794.53;5041010;28;45493;-68
2024/02/12 07:20:56;;;;;;;;;10.00;4.00;;;;;9.32;76.43;99805.03;5039461;28;45402;-72
2024/02/12 07:23:21;;;;;;;;;8.50;4.00;;;;;9.31;76.44;99803.31;5075936;27;54592;-70
2024/02/12 07:25:47;;;;;;;;;5.50;4.75;;;;;9.26;76.50;99813.97;5039051;28;72970;-67
2024/02/12 07:28:13;;;;;;;;;5.75;5.00;;;;;9.22;76.49;99814.94;5045251;28;45443;-65
2024/02/12 07:30:39;;;;;;;;;7.75;4.25;;;;;9.20;76.55;99815.94;5039598;28;45261;-67
2024/02/12 07:33:05;;;;;;;;;6.25;5.00;;;;;9.19;76.79;99816.81;5037334;28;45497;-66
2024/02/12 07:35:30;;;;;;;;;9.75;4.75;;;;;9.22;76.77;99821.94;5071359;27;45630;-62
2024/02/12 07:37:58;;;;;;;;;4.50;3.75;;;;;9.23;76.79;99827.09;5036836;28;45372;-65
2024/02/12 07:40:24;;;;;;;;;7.25;5.00;;;;;9.23;76.84;99834.09;5044649;28;45211;-63
2024/02/12 07:42:49;;;;;;;;;8.00;4.50;;;;;9.24;76.83;99838.41;5053674;28;45313;-63
2024/02/12 07:45:14;;;;;;;;;8.00;5.00;;;;;9.26;76.97;99842.66;5037728;28;45537;-67
2024/02/12 07:47:41;;;;;;;;;8.00;5.50;;;;;9.27;76.87;99840.91;5078131;27;61127;-66
2024/02/12 07:50:07;;;;;;;;;6.75;5.00;;;;;9.31;76.86;99838.13;5038347;28;45660;-73
2024/02/12 07:52:32;;;;;;;;;9.50;6.00;;;;;9.38;77.08;99848.34;5041077;28;46302;-74
2024/02/12 07:55:00;;;;;;;;;9.00;4.50;;;;;9.43;76.90;99860.31;5054323;28;73078;-69
2024/02/12 07:57:25;;;;;;;;;6.50;5.25;;;;;9.47;76.60;99861.06;5043686;28;45470;-64
2024/02/12 07:59:51;;;;;;;;;8.25;4.75;;;;;9.48;76.49;99866.22;5045741;28;45359;-72
2024/02/12 08:02:17;;;;;;;;;36.00;27.50;;;;;9.54;76.41;99867.75;5076079;27;73859;-77
2024/02/12 08:04:42;;;;;;;;;22.00;17.25;;;;;9.56;76.40;99870.31;5057236;28;45288;-75
2024/02/12 08:07:08;;;;;;;;;6.50;5.75;;;;;9.61;75.94;99881.47;5048547;28;45220;-67
2024/02/12 08:09:33;;;;;;;;;4.00;4.00;;;;;9.63;75.92;99874.41;5053444;28;73230;-75
2024/02/12 08:12:04;;;;;;;;;5.00;4.00;;;;;9.67;76.06;99884.69;5071476;27;45948;-75
2024/02/12 08:14:30;;;;;;;;;9.25;3.00;;;;;9.70;75.67;99888.94;5039950;28;45374;-70
2024/02/12 08:16:55;;;;;;;;;5.00;3.00;;;;;9.72;75.83;99886.28;5043637;28;45445;-69
2024/02/12 08:19:22;;;;;;;;;6.75;5.00;;;;;9.76;75.80;99890.50;5041338;28;45261;-70
2024/02/12 08:21:47;;;;;;;;;7.00;5.00;;;;;9.77;75.55;99887.81;5083153;27;45335;-71
2024/02/12 08:24:15;;;;;;;;;6.75;4.50;;;;;9.76;75.37;99888.75;5084353;27;70331;-72
2024/02/12 08:26:41;;;;;;;;;9.00;4.75;;;;;9.79;75.23;99903.44;5082883;27;45501;-71
2024/02/12 08:29:06;;;;;;;;;6.00;5.00;;;;;9.80;75.09;99906.00;5034974;28;45393;-70
2024/02/12 08:31:31;;;;;;;;;5.00;5.00;;;;;9.78;75.00;99912.19;5073459;27;75321;-69
2024/02/12 08:33:59;;;;;;;;;5.50;4.25;;;;;9.76;74.90;99909.63;5044746;28;72184;-70
2024/02/12 08:36:24;;;;;;;;;7.50;4.25;;;;;9.71;74.88;99908.94;5063755;28;45432;-72
2024/02/12 08:38:49;;;;;;;;;8.00;4.50;;;;;9.71;75.27;99908.94;5050326;28;45278;-72
2024/02/12 08:41:22;;;;;;;;;5.00;5.00;;;;;9.68;75.35;99917.78;5040344;28;54130;-70
2024/02/12 08:43:49;;;;;;;;;4.50;4.00;;;;;9.67;75.47;99920.44;5078209;27;45896;-72
2024/02/12 08:46:14;;;;;;;;;9.50;5.00;;;;;9.65;75.52;99933.53;5049886;28;45365;-67
2024/02/12 08:48:40;;;;;;;;;8.50;4.25;;;;;9.65;75.07;99924.84;5077959;27;72696;-69
2024/02/12 08:51:05;;;;;;;;;7.25;5.50;;;;;9.67;75.12;99928.28;5042010;28;55631;-70
2024/02/12 08:53:33;;;;;;;;;12.25;6.50;;;;;9.64;75.35;99931.00;5087549;27;73150;-70
2024/02/12 08:55:59;;;;;;;;;65.00;48.50;;;;;9.66;75.31;99935.22;5087307;27;45300;-68
2024/02/12 08:58:24;;;;;;;;;68.25;48.75;;;;;9.67;75.62;99936.94;5058769;28;45578;-67
2024/02/12 09:00:52;;;;;;;;;15.75;11.00;;;;;9.76;75.75;99945.38;5053044;28;45986;-68
2024/02/12 09:03:17;;;;;;;;;6.25;6.25;;;;;9.84;75.39;99940.69;5039155;28;45316;-67
2024/02/12 09:05:43;;;;;;;;;5.25;2.25;;;;;9.95;75.32;99956.84;5043621;28;45386;-69
2024/02/12 09:08:09;;;;;;;;;13.00;5.25;;;;;10.04;74.75;99951.28;5041438;28;67323;-71
2024/02/12 09:10:34;;;;;;;;;11.50;5.25;;;;;10.12;74.86;99944.91;5043566;28;45376;-69
2024/02/12 09:13:00;;;;;;;;;11.75;5.00;;;;;10.19;74.55;99949.00;5040962;28;45459;-78
2024/02/12 09:15:25;;;;;;;;;6.75;5.75;;;;;10.26;74.84;99953.91;5042797;28;45371;-81
2024/02/12 09:17:51;;;;;;;;;9.50;6.00;;;;;10.34;74.63;99958.03;5044657;28;73754;-81
2024/02/12 09:20:16;;;;;;;;;10.50;4.00;;;;;10.44;74.22;99964.63;5056280;28;46302;-79
2024/02/12 09:22:42;;;;;;;;;12.50;6.25;;;;;10.50;74.26;99964.41;5041267;28;45264;-82
2024/02/12 09:25:11;;;;;;;;;11.75;6.50;;;;;10.58;74.23;99972.78;5043629;28;45403;-83
2024/02/12 09:27:37;;;;;;;;;8.50;7.00;;;;;10.60;73.69;99975.34;5078916;27;45519;-80
2024/02/12 09:30:06;;;;;;;;;10.00;6.00;;;;;10.63;73.63;99977.84;5045407;28;47031;-73
2024/02/12 09:32:31;;;;;;;;;9.00;7.00;;;;;10.67;73.53;99987.28;5071783;27;46400;-76
2024/02/12 09:34:57;;;;;;;;;6.75;6.00;;;;;10.67;73.53;99981.19;5040438;28;68000;-78
2024/02/12 09:37:29;;;;;;;;;8.50;7.00;;;;;10.72;73.31;99982.72;5041313;28;45518;-73
2024/02/12 09:39:55;;;;;;;;;57.25;45.00;;;;;10.75;73.43;99982.59;5046108;28;46123;-75
2024/02/12 09:42:21;;;;;;;;;17.50;12.50;;;;;10.77;73.16;99979.91;5037623;28;45451;-76
2024/02/12 09:44:47;;;;;;;;;6.00;6.00;;;;;10.82;73.11;99977.97;5046158;28;45200;-65
2024/02/12 09:47:16;;;;;;;;;9.25;6.00;;;;;10.80;73.04;99980.66;5039334;28;45513;-76
2024/02/12 09:49:43;;;;;;;;;5.50;4.50;;;;;10.83;73.32;99990.97;5056270;28;45345;-75
2024/02/12 09:52:08;;;;;;;;;9.25;6.50;;;;;10.81;73.03;99987.56;5040222;28;45408;-77
2024/02/12 09:54:36;;;;;;;;;5.50;5.00;;;;;10.78;73.04;99992.06;5055995;28;60001;-76
2024/02/12 09:57:01;;;;;;;;;6.50;4.00;;;;;10.77;73.03;99998.25;5055335;28;45443;-78
2024/02/12 09:59:28;;;;;;;;;10.00;6.00;;;;;10.75;73.11;100003.53;5039472;28;45679;-73
2024/02/12 10:01:54;;;;;;;;;8.50;6.00;;;;;10.78;73.02;100005.16;5068938;27;45439;-78
2024/02/12 10:04:20;;;;;;;;;7.75;4.00;;;;;10.80;72.95;100000.72;5036119;28;45669;-77
2024/02/12 10:06:53;;;;;;;;;8.75;3.75;;;;;10.83;72.79;100013.69;5063647;27;45273;-79
2024/02/12 10:09:19;;;;;;;;;7.50;5.00;;;;;10.85;72.98;100006.63;5056522;28;45236;-80
2024/02/12 10:11:44;;;;;;;;;38.25;30.00;;;;;10.83;72.64;100008.44;5039088;28;73582;-75
2024/02/12 10:14:12;;;;;;;;;56.25;40.75;;;;;10.85;73.18;100014.47;5045391;28;67257;-76
2024/02/12 10:16:38;;;;;;;;;5.50;4.00;;;;;10.89;72.61;100015.19;5039671;28;45723;-77
2024/02/12 10:19:04;;;;;;;;;9.75;6.75;;;;;10.88;72.46;100021.38;5041569;28;46041;-75
2024/02/12 10:21:30;;;;;;;;;10.50;7.00;;;;;10.92;72.62;100029.00;5041052;28;45643;-75
2024/02/12 10:23:59;;;;;;;;;9.75;7.00;;;;;10.99;72.75;100030.47;5043498;28;45217;-68
2024/02/12 10:26:25;;;;;;;;;8.50;8.00;;;;;11.11;72.49;100029.13;5040608;28;45495;-64
2024/02/12 10:28:54;;;;;;;;;6.75;6.50;;;;;11.28;72.84;100032.81;5050138;28;46271;-62
2024/02/12 10:31:23;;;;;;;;;14.25;8.00;;;;;11.47;72.45;100035.53;5046538;28;45306;-69
2024/02/12 10:33:51;;;;;;;;;11.00;8.00;;;;;11.61;71.72;100035.81;5057589;28;45465;-69
2024/02/12 10:36:18;;;;;;;;;9.50;6.75;;;;;11.73;71.74;100037.91;5024258;28;45406;-68
2024/02/12 10:38:43;;;;;;;;;16.00;9.00;;;;;11.82;71.08;100044.53;5043158;28;45465;-70
2024/02/12 10:41:19;;;;;;;;;7.25;7.25;;;;;11.90;71.24;100049.44;5060503;28;45791;-70
2024/02/12 10:43:45;;;;;;;;;9.25;8.00;;;;;11.97;70.92;100050.91;5057086;28;45461;-68
2024/02/12 10:46:12;;;;;;;;;11.50;8.00;;;;;12.06;70.69;100053.13;5049623;28;60447;-68
2024/02/12 10:48:42;;;;;;;;;8.50;5.00;;;;;12.17;69.79;100054.44;5050861;28;46152;-69
2024/02/12 10:51:08;;;;;;;;;11.25;6.00;;;;;12.28;69.68;100052.16;5045996;28;45717;-68
2024/02/12 10:53:35;;;;;;;;;8.25;6.75;;;;;12.40;69.05;100054.25;5042173;28;45446;-68
2024/02/12 10:56:00;;;;;;;;;6.25;6.25;;;;;12.57;68.57;100058.72;5027080;28;45481;-69
2024/02/12 10:58:27;;;;;;;;;10.50;10.50;;;;;12.71;68.55;100064.19;5048158;28;63221;-68
2024/02/12 11:01:00;;;;;;;;;6.25;5.00;;;;;12.79;67.27;100066.44;5043546;28;46011;-69
2024/02/12 11:03:45;;;;;;;;;7.25;5.00;;;;;12.76;66.68;100066.56;5041414;28;45324;-69
2024/02/12 11:06:10;;;;;;;;;8.25;6.00;;;;;12.72;66.36;100071.13;5045652;28;45377;-70
2024/02/12 11:08:39;;;;;;;;;6.00;4.50;;;;;12.68;65.66;100074.81;5078765;27;45452;-70
2024/02/12 11:11:22;;;;;;;;;3.75;2.75;;;;;12.64;65.06;100078.53;5044564;28;45358;-63
2024/02/12 11:13:52;;;;;;;;;0.25;0.00;;;;;12.64;65.32;100083.78;5047414;28;45468;-74
2024/02/12 11:16:22;;;;;;;;;11.00;6.00;;;;;12.64;65.08;100085.53;5039654;28;45706;-71
2024/02/12 11:18:57;;;;;;;;;4.50;3.25;;;;;12.63;65.00;100086.47;5021869;28;47302;-69
2024/02/12 11:21:26;;;;;;;;;6.75;6.00;;;;;12.63;65.65;100095.19;5058506;28;45472;-70
2024/02/12 11:24:01;;;;;;;;;6.75;6.00;;;;;12.64;65.19;100096.03;5043530;28;45344;-70
2024/02/12 11:26:32;;;;;;;;;11.75;7.00;;;;;12.69;65.09;100101.91;5028170;28;45479;-72
2024/02/12 11:29:03;;;;;;;;;9.25;6.50;;;;;12.77;64.83;100098.97;5046716;28;47040;-71
2024/02/12 11:31:28;;;;;;;;;6.25;5.00;;;;;12.85;64.67;100099.44;5044601;28;45476;-68
2024/02/12 11:33:54;;;;;;;;;4.75;4.25;;;;;12.87;64.50;100098.47;5046823;28;68214;-69
2024/02/12 11:36:19;;;;;;;;;4.25;3.00;;;;;12.95;63.54;100105.97;5052808;28;45238;-70
2024/02/12 11:38:48;;;;;;;;;4.50;3.00;;;;;13.02;63.47;100102.13;5079947;27;74103;-67
2024/02/12 11:41:15;;;;;;;;;4.75;2.00;;;;;13.11;62.93;100106.94;5045809;28;45490;-67
2024/02/12 11:43:42;;;;;;;;;6.00;4.50;;;;;13.25;63.64;100108.91;5047686;28;45453;-67
2024/02/12 11:46:10;;;;;;;;;8.25;7.00;;;;;13.35;62.85;100112.00;5081082;27;45524;-65
2024/02/12 11:48:35;;;;;;;;;5.25;4.50;;;;;13.38;62.38;100108.34;5029735;28;46026;-68